createdAt,value
2022-08-03T00:00:51.194Z,53.25
2022-08-03T00:01:53.016Z,53.44
2022-08-03T00:02:54.824Z,53.36
2022-08-03T00:03:56.842Z,53.39
2022-08-03T00:04:58.612Z,53.39
2022-08-03T00:06:04.090Z,53.65
2022-08-03T00:07:08.736Z,53.55
2022-08-03T00:08:10.432Z,53.40
2022-08-03T00:09:12.282Z,53.01
2022-08-03T00:10:16.997Z,53.23
2022-08-03T00:11:18.711Z,53.16
2022-08-03T00:12:20.595Z,53.38
2022-08-03T00:13:25.820Z,53.46
2022-08-03T00:14:27.478Z,53.61
2022-08-03T00:15:29.164Z,53.52
2022-08-03T00:16:31.023Z,53.33
2022-08-03T00:17:52.486Z,53.76
2022-08-03T00:18:55.474Z,53.79
2022-08-03T00:19:57.109Z,53.74
2022-08-03T00:20:59.072Z,53.95
2022-08-03T00:22:00.723Z,54.39
2022-08-03T00:23:02.526Z,54.68
2022-08-03T00:24:04.532Z,54.98
2022-08-03T00:25:06.652Z,55.15
2022-08-03T00:26:08.266Z,55.18
2022-08-03T00:27:10.068Z,55.27
2022-08-03T00:28:12.049Z,55.93
2022-08-03T00:29:15.774Z,55.89
2022-08-03T00:30:17.371Z,56.14
2022-08-03T00:31:22.312Z,56.20
2022-08-03T00:32:44.994Z,56.20
2022-08-03T00:33:59.174Z,56.40
2022-08-03T00:35:04.335Z,56.32
2022-08-03T00:36:10.255Z,56.76
2022-08-03T00:37:14.569Z,56.86
2022-08-03T00:38:21.696Z,56.54
2022-08-03T00:39:23.322Z,56.74
2022-08-03T00:40:24.983Z,56.68
2022-08-03T00:41:27.215Z,56.62
2022-08-03T00:42:29.011Z,56.55
2022-08-03T00:43:30.844Z,56.81
2022-08-03T00:44:43.794Z,56.99
2022-08-03T00:45:45.400Z,56.95
2022-08-03T00:46:49.123Z,56.95
2022-08-03T00:47:51.213Z,56.97
2022-08-03T00:48:53.239Z,56.86
2022-08-03T00:49:58.404Z,56.79
2022-08-03T00:51:00.320Z,56.89
2022-08-03T00:52:09.537Z,56.96
2022-08-03T00:53:13.528Z,56.89
2022-08-03T00:54:17.792Z,56.86
2022-08-03T00:55:19.975Z,56.88
2022-08-03T00:56:21.715Z,57.23
2022-08-03T00:57:23.355Z,57.15
2022-08-03T00:58:27.766Z,57.36
2022-08-03T00:59:30.411Z,57.44
2022-08-03T01:00:33.758Z,57.65
2022-08-03T01:01:36.547Z,58.02
2022-08-03T01:02:39.798Z,58.47
2022-08-03T01:03:42.014Z,58.78
2022-08-03T01:04:43.836Z,58.52
2022-08-03T01:06:07.136Z,58.65
2022-08-03T01:07:17.833Z,59.13
2022-08-03T01:08:25.478Z,59.32
2022-08-03T01:09:46.196Z,59.47
2022-08-03T01:11:12.732Z,59.54
2022-08-03T01:12:29.133Z,59.77
2022-08-03T01:14:18.111Z,59.85
2022-08-03T01:15:48.495Z,60.18
2022-08-03T01:17:17.311Z,60.34
2022-08-03T01:18:25.956Z,60.56
2022-08-03T01:19:44.843Z,60.23
2022-08-03T01:20:53.863Z,60.42
2022-08-03T01:21:58.582Z,60.21
2022-08-03T01:23:34.895Z,60.47
2022-08-03T01:25:20.887Z,60.37
2022-08-03T01:26:34.740Z,60.39
2022-08-03T01:27:45.973Z,60.66
2022-08-03T01:29:03.775Z,60.48
2022-08-03T01:30:13.378Z,60.63
2022-08-03T01:31:20.816Z,60.57
2022-08-03T01:33:00.127Z,60.81
2022-08-03T01:34:01.442Z,61.24
2022-08-03T01:35:16.179Z,61.21
2022-08-03T01:36:26.419Z,61.05
2022-08-03T01:37:38.733Z,61.25
2022-08-03T01:38:49.616Z,61.15
2022-08-03T01:39:53.096Z,61.27
2022-08-03T01:41:02.728Z,61.32
2022-08-03T01:42:08.463Z,61.45
2022-08-03T01:43:59.074Z,60.93
2022-08-03T01:44:41.690Z,60.81
2022-08-03T01:45:44.794Z,60.75
2022-08-03T01:46:49.984Z,60.48
2022-08-03T01:47:53.427Z,60.07
2022-08-03T01:48:56.350Z,60.05
2022-08-03T01:50:03.123Z,59.66
2022-08-03T01:51:08.965Z,59.40
2022-08-03T01:52:12.645Z,58.92
2022-08-03T01:53:19.217Z,58.96
2022-08-03T01:54:23.857Z,58.34
2022-08-03T01:55:30.154Z,58.34
2022-08-03T01:56:32.794Z,58.43
2022-08-03T01:58:05.765Z,58.40
2022-08-03T01:59:04.070Z,58.51
2022-08-03T02:00:09.498Z,58.01
2022-08-03T02:01:15.942Z,57.79
2022-08-03T02:02:33.643Z,58.01
2022-08-03T02:04:00.466Z,57.61
2022-08-03T02:05:06.005Z,57.09
2022-08-03T02:07:00.362Z,56.28
2022-08-03T02:07:37.456Z,55.86
2022-08-03T02:08:43.949Z,55.99
2022-08-03T02:09:50.008Z,56.09
2022-08-03T02:10:52.712Z,56.03
2022-08-03T02:11:56.322Z,56.61
2022-08-03T02:13:01.312Z,57.23
2022-08-03T02:14:06.032Z,57.82
2022-08-03T02:15:09.576Z,57.88
2022-08-03T02:16:14.141Z,57.89
2022-08-03T02:17:16.614Z,57.90
2022-08-03T02:18:19.973Z,58.01
2022-08-03T02:19:23.359Z,58.17
2022-08-03T02:20:26.943Z,57.96
2022-08-03T02:21:55.964Z,57.57
2022-08-03T02:22:54.214Z,57.14
2022-08-03T02:23:56.389Z,57.23
2022-08-03T02:24:58.167Z,58.12
2022-08-03T02:26:03.470Z,58.29
2022-08-03T02:27:17.420Z,59.35
2022-08-03T02:28:25.127Z,59.43
2022-08-03T02:29:39.492Z,59.95
2022-08-03T02:30:45.635Z,59.73
2022-08-03T02:31:49.418Z,60.25
2022-08-03T02:32:55.970Z,60.08
2022-08-03T02:34:01.970Z,59.89
2022-08-03T02:35:06.700Z,59.71
2022-08-03T02:36:09.493Z,59.64
2022-08-03T02:37:13.145Z,59.69
2022-08-03T02:38:18.437Z,59.81
2022-08-03T02:39:23.117Z,59.53
2022-08-03T02:40:29.443Z,59.55
2022-08-03T02:41:38.929Z,59.44
2022-08-03T02:42:45.350Z,59.13
2022-08-03T02:44:06.255Z,58.68
2022-08-03T02:45:15.588Z,57.46
2022-08-03T02:46:21.043Z,57.21
2022-08-03T02:47:27.810Z,57.53
2022-08-03T02:48:32.715Z,57.16
2022-08-03T02:49:50.650Z,58.46
2022-08-03T02:50:57.164Z,58.00
2022-08-03T02:52:04.169Z,58.64
2022-08-03T02:53:07.112Z,59.42
2022-08-03T02:54:10.828Z,59.50
2022-08-03T02:55:15.025Z,59.72
2022-08-03T02:56:19.184Z,60.31
2022-08-03T02:57:22.136Z,60.13
2022-08-03T02:58:25.603Z,60.69
2022-08-03T02:59:31.228Z,60.79
2022-08-03T03:00:34.601Z,61.28
2022-08-03T03:01:37.016Z,60.89
2022-08-03T03:02:43.878Z,60.96
2022-08-03T03:03:46.770Z,60.52
2022-08-03T03:04:59.700Z,60.81
2022-08-03T03:06:13.754Z,60.80
2022-08-03T03:07:18.367Z,61.04
2022-08-03T03:08:28.112Z,60.66
2022-08-03T03:09:41.529Z,60.32
2022-08-03T03:10:46.587Z,59.75
2022-08-03T03:11:50.869Z,60.59
2022-08-03T03:12:56.680Z,61.33
2022-08-03T03:14:00.103Z,60.86
2022-08-03T03:15:02.096Z,60.97
2022-08-03T03:16:08.172Z,61.23
2022-08-03T03:17:11.732Z,61.62
2022-08-03T03:18:18.873Z,61.85
2022-08-03T03:19:25.531Z,61.65
2022-08-03T03:20:30.429Z,61.87
2022-08-03T03:21:33.939Z,61.94
2022-08-03T03:22:36.973Z,62.21
2022-08-03T03:23:40.759Z,62.17
2022-08-03T03:24:43.047Z,62.39
2022-08-03T03:25:45.454Z,62.83
2022-08-03T03:26:48.756Z,63.22
2022-08-03T03:27:51.310Z,63.58
2022-08-03T03:28:53.261Z,63.60
2022-08-03T03:29:55.050Z,63.79
2022-08-03T03:30:56.981Z,64.58
2022-08-03T03:31:59.015Z,64.40
2022-08-03T03:33:04.406Z,64.58
2022-08-03T03:34:06.799Z,64.43
2022-08-03T03:35:10.207Z,64.63
2022-08-03T03:36:11.852Z,64.77
2022-08-03T03:37:13.696Z,64.41
2022-08-03T03:38:15.430Z,64.47
2022-08-03T03:39:17.045Z,64.74
2022-08-03T03:40:19.691Z,64.96
2022-08-03T03:41:21.383Z,64.59
2022-08-03T03:42:23.523Z,64.81
2022-08-03T03:43:25.701Z,64.35
2022-08-03T03:44:31.068Z,64.02
2022-08-03T03:45:35.455Z,64.04
2022-08-03T03:46:38.865Z,63.86
2022-08-03T03:47:41.140Z,63.99
2022-08-03T03:48:42.853Z,63.65
2022-08-03T03:49:45.927Z,63.51
2022-08-03T03:50:49.969Z,63.31
2022-08-03T03:51:55.474Z,63.38
2022-08-03T03:52:57.155Z,63.19
2022-08-03T03:54:01.330Z,63.02
2022-08-03T03:55:03.250Z,63.29
2022-08-03T03:56:05.150Z,63.20
2022-08-03T03:57:06.986Z,63.08
2022-08-03T03:58:08.736Z,62.97
2022-08-03T03:59:10.419Z,63.07
2022-08-03T04:00:13.627Z,62.85
2022-08-03T04:01:15.978Z,63.17
2022-08-03T04:02:18.241Z,63.03
2022-08-03T04:03:20.257Z,62.99
2022-08-03T04:04:40.464Z,62.87
2022-08-03T04:06:00.770Z,62.74
2022-08-03T04:07:20.987Z,63.07
2022-08-03T04:08:41.675Z,62.78
2022-08-03T04:10:14.250Z,62.43
2022-08-03T04:11:32.053Z,62.25
2022-08-03T04:12:36.605Z,62.25
2022-08-03T04:13:42.294Z,62.02
2022-08-03T04:14:46.641Z,62.17
2022-08-03T04:15:49.778Z,62.41
2022-08-03T04:17:04.984Z,62.02
2022-08-03T04:18:11.725Z,61.91
2022-08-03T04:19:23.478Z,61.65
2022-08-03T04:20:30.508Z,61.63
2022-08-03T04:21:33.804Z,61.75
2022-08-03T04:22:37.159Z,61.55
2022-08-03T04:23:44.677Z,61.58
2022-08-03T04:24:49.919Z,61.66
2022-08-03T04:25:53.416Z,61.32
2022-08-03T04:26:56.401Z,61.24
2022-08-03T04:28:08.000Z,60.94
2022-08-03T04:29:26.087Z,61.17
2022-08-03T04:30:29.095Z,60.91
2022-08-03T04:31:30.898Z,60.83
2022-08-03T04:32:34.020Z,60.91
2022-08-03T04:33:38.796Z,60.75
2022-08-03T04:34:40.820Z,60.44
2022-08-03T04:36:02.072Z,60.52
2022-08-03T04:37:12.178Z,60.33
2022-08-03T04:38:17.295Z,59.87
2022-08-03T04:39:27.577Z,60.01
2022-08-03T04:40:39.721Z,59.96
2022-08-03T04:42:04.358Z,59.74
2022-08-03T04:43:06.434Z,59.63
2022-08-03T04:44:09.419Z,59.14
2022-08-03T04:45:15.647Z,59.45
2022-08-03T04:46:19.661Z,59.31
2022-08-03T04:47:21.646Z,58.85
2022-08-03T04:48:23.992Z,58.86
2022-08-03T04:49:26.676Z,59.10
2022-08-03T04:50:29.118Z,58.63
2022-08-03T04:51:40.618Z,58.61
2022-08-03T04:52:42.331Z,58.61
2022-08-03T04:53:44.229Z,58.33
2022-08-03T04:54:50.716Z,57.98
2022-08-03T04:55:52.924Z,58.06
2022-08-03T04:56:54.621Z,58.02
2022-08-03T04:57:57.353Z,58.27
2022-08-03T04:58:58.986Z,57.98
2022-08-03T05:00:03.414Z,58.40
2022-08-03T05:01:05.496Z,58.45
2022-08-03T05:02:07.383Z,58.65
2022-08-03T05:03:20.328Z,58.28
2022-08-03T05:04:26.207Z,58.24
2022-08-03T05:05:48.704Z,58.01
2022-08-03T05:06:55.130Z,58.44
2022-08-03T05:07:57.533Z,58.45
2022-08-03T05:09:02.963Z,58.73
2022-08-03T05:10:15.894Z,58.54
2022-08-03T05:11:18.663Z,58.78
2022-08-03T05:12:20.511Z,58.49
2022-08-03T05:13:22.165Z,58.00
2022-08-03T05:14:28.299Z,57.85
2022-08-03T05:15:30.312Z,57.22
2022-08-03T05:16:32.088Z,56.88
2022-08-03T05:17:34.339Z,57.01
2022-08-03T05:18:36.102Z,56.79
2022-08-03T05:19:37.809Z,56.17
2022-08-03T05:20:39.579Z,56.24
2022-08-03T05:21:52.444Z,56.87
2022-08-03T05:22:55.370Z,56.47
2022-08-03T05:23:56.995Z,56.62
2022-08-03T05:24:58.661Z,56.30
2022-08-03T05:26:00.327Z,56.52
2022-08-03T05:27:02.159Z,56.45
2022-08-03T05:28:04.310Z,56.07
2022-08-03T05:29:06.124Z,55.46
2022-08-03T05:30:30.670Z,55.65
2022-08-03T05:31:30.713Z,55.57
2022-08-03T05:32:32.495Z,55.04
2022-08-03T05:33:34.337Z,54.84
2022-08-03T05:34:35.970Z,54.65
2022-08-03T05:35:57.444Z,54.97
2022-08-03T05:37:00.813Z,54.61
2022-08-03T05:38:03.562Z,54.42
2022-08-03T05:39:05.752Z,54.29
2022-08-03T05:40:07.885Z,54.41
2022-08-03T05:41:22.230Z,54.27
2022-08-03T05:42:25.483Z,54.33
2022-08-03T05:43:27.425Z,54.05
2022-08-03T05:44:29.267Z,53.88
2022-08-03T05:45:32.326Z,54.00
2022-08-03T05:46:34.057Z,54.18
2022-08-03T05:47:35.720Z,53.82
2022-08-03T05:48:37.654Z,54.01
2022-08-03T05:49:39.383Z,54.01
2022-08-03T05:50:42.865Z,54.33
2022-08-03T05:51:45.317Z,54.17
2022-08-03T05:52:47.638Z,54.19
2022-08-03T05:53:49.638Z,54.03
2022-08-03T05:54:56.736Z,54.22
2022-08-03T05:56:13.101Z,54.03
2022-08-03T05:57:16.464Z,53.86
2022-08-03T05:58:18.100Z,53.25
2022-08-03T05:59:37.512Z,53.11
2022-08-03T06:00:39.650Z,52.69
2022-08-03T06:01:41.440Z,51.75
2022-08-03T06:02:43.433Z,50.55
2022-08-03T06:03:45.975Z,48.91
2022-08-03T06:04:47.773Z,47.41
2022-08-03T06:05:55.545Z,46.36
2022-08-03T06:07:02.130Z,45.51
2022-08-03T06:08:04.113Z,44.64
2022-08-03T06:09:05.740Z,43.14
2022-08-03T06:10:35.661Z,41.94
2022-08-03T06:11:30.686Z,41.13
2022-08-03T06:12:35.978Z,40.14
2022-08-03T06:13:37.877Z,39.67
2022-08-03T06:14:39.649Z,39.85
2022-08-03T06:15:42.014Z,39.45
2022-08-03T06:16:43.648Z,39.57
2022-08-03T06:17:49.254Z,39.63
2022-08-03T06:18:51.070Z,38.67
2022-08-03T06:19:53.885Z,38.12
2022-08-03T06:20:55.878Z,37.27
2022-08-03T06:21:57.873Z,37.11
2022-08-03T06:23:01.183Z,36.69
2022-08-03T06:24:03.286Z,36.19
2022-08-03T06:25:12.709Z,36.14
2022-08-03T06:26:14.688Z,35.66
2022-08-03T06:27:16.680Z,34.92
2022-08-03T06:28:51.814Z,34.86
2022-08-03T06:29:40.380Z,34.75
2022-08-03T06:30:42.059Z,34.64
2022-08-03T06:31:44.183Z,33.89
2022-08-03T06:32:52.564Z,33.92
2022-08-03T06:34:32.439Z,33.67
2022-08-03T06:35:16.358Z,33.75
2022-08-03T06:36:17.976Z,33.81
2022-08-03T06:37:19.631Z,33.34
2022-08-03T06:38:21.945Z,32.80
2022-08-03T06:39:23.958Z,32.69
2022-08-03T06:40:32.183Z,33.25
2022-08-03T06:41:38.286Z,32.96
2022-08-03T06:42:46.783Z,33.68
2022-08-03T06:44:03.273Z,34.06
2022-08-03T06:45:08.957Z,33.63
2022-08-03T06:46:11.008Z,33.59
2022-08-03T06:47:12.718Z,33.31
2022-08-03T06:48:14.782Z,32.84
2022-08-03T06:49:16.691Z,32.72
2022-08-03T06:50:22.952Z,32.34
2022-08-03T06:52:04.147Z,32.52
2022-08-03T06:52:49.168Z,32.02
2022-08-03T06:53:51.053Z,32.18
2022-08-03T06:54:52.747Z,33.11
2022-08-03T06:55:55.326Z,33.00
2022-08-03T06:56:57.219Z,32.46
2022-08-03T06:58:00.005Z,31.86
2022-08-03T06:59:05.368Z,31.26
2022-08-03T07:00:12.287Z,31.25
2022-08-03T07:01:14.463Z,31.17
2022-08-03T07:02:20.593Z,32.06
2022-08-03T07:03:22.383Z,32.76
2022-08-03T07:04:24.148Z,32.98
2022-08-03T07:05:26.369Z,33.50
2022-08-03T07:06:28.074Z,33.83
2022-08-03T07:07:29.828Z,33.27
2022-08-03T07:08:34.112Z,32.94
2022-08-03T07:09:36.444Z,32.51
2022-08-03T07:10:38.560Z,31.50
2022-08-03T07:11:40.257Z,31.36
2022-08-03T07:12:55.865Z,30.86
2022-08-03T07:13:58.483Z,30.54
2022-08-03T07:15:02.983Z,30.46
2022-08-03T07:16:05.546Z,30.01
2022-08-03T07:17:11.622Z,29.47
2022-08-03T07:18:13.856Z,29.79
2022-08-03T07:19:15.538Z,29.38
2022-08-03T07:20:18.277Z,29.17
2022-08-03T07:21:20.052Z,28.64
2022-08-03T07:22:21.891Z,28.60
2022-08-03T07:23:23.614Z,28.13
2022-08-03T07:24:25.237Z,28.28
2022-08-03T07:25:30.288Z,28.29
2022-08-03T07:26:31.965Z,27.50
2022-08-03T07:27:34.014Z,27.02
2022-08-03T07:28:35.674Z,26.84
2022-08-03T07:29:37.977Z,26.65
2022-08-03T07:30:39.871Z,25.98
2022-08-03T07:31:42.110Z,26.50
2022-08-03T07:32:50.199Z,26.27
2022-08-03T07:33:52.771Z,26.27
2022-08-03T07:34:58.470Z,26.29
2022-08-03T07:36:02.022Z,27.29
2022-08-03T07:37:03.682Z,28.09
2022-08-03T07:38:05.494Z,27.52
2022-08-03T07:39:17.704Z,27.08
2022-08-03T07:40:20.135Z,27.12
2022-08-03T07:41:21.783Z,26.68
2022-08-03T07:42:23.990Z,26.30
2022-08-03T07:43:25.834Z,25.88
2022-08-03T07:44:27.590Z,25.05
2022-08-03T07:45:30.888Z,25.30
2022-08-03T07:46:33.427Z,26.01
2022-08-03T07:47:36.089Z,26.56
2022-08-03T07:48:37.970Z,26.76
2022-08-03T07:49:41.370Z,26.18
2022-08-03T07:50:43.216Z,25.41
2022-08-03T07:51:45.199Z,25.84
2022-08-03T07:52:50.332Z,25.59
2022-08-03T07:53:52.920Z,25.65
2022-08-03T07:54:54.828Z,25.58
2022-08-03T07:55:57.125Z,25.41
2022-08-03T07:56:58.762Z,25.54
2022-08-03T07:58:20.619Z,25.49
2022-08-03T07:59:25.636Z,25.33
2022-08-03T08:00:27.383Z,26.00
2022-08-03T08:01:29.604Z,25.85
2022-08-03T08:02:31.341Z,26.00
2022-08-03T08:03:52.830Z,25.31
2022-08-03T08:04:55.012Z,24.70
2022-08-03T08:05:56.670Z,24.69
2022-08-03T08:06:58.313Z,24.18
2022-08-03T08:08:01.433Z,24.48
2022-08-03T08:09:03.452Z,25.24
2022-08-03T08:10:10.317Z,24.07
2022-08-03T08:11:12.110Z,24.62
2022-08-03T08:12:15.293Z,24.01
2022-08-03T08:13:17.603Z,23.73
2022-08-03T08:14:19.279Z,23.89
2022-08-03T08:15:21.273Z,23.55
2022-08-03T08:16:22.932Z,23.39
2022-08-03T08:17:24.793Z,22.70
2022-08-03T08:18:29.545Z,22.64
2022-08-03T08:19:31.225Z,22.78
2022-08-03T08:20:39.136Z,22.70
2022-08-03T08:21:53.970Z,22.49
2022-08-03T08:23:12.149Z,23.03
2022-08-03T08:24:30.418Z,23.49
2022-08-03T08:25:34.046Z,23.22
2022-08-03T08:26:36.503Z,23.63
2022-08-03T08:28:29.133Z,23.24
2022-08-03T08:29:08.228Z,23.33
2022-08-03T08:30:13.044Z,23.73
2022-08-03T08:31:16.711Z,23.20
2022-08-03T08:32:18.706Z,23.24
2022-08-03T08:33:22.638Z,23.39
2022-08-03T08:34:25.338Z,22.73
2022-08-03T08:35:27.311Z,22.86
2022-08-03T08:36:29.102Z,22.30
2022-08-03T08:37:30.756Z,22.09
2022-08-03T08:38:35.057Z,22.42
2022-08-03T08:39:36.971Z,22.65
2022-08-03T08:40:38.665Z,22.44
2022-08-03T08:41:45.772Z,22.89
2022-08-03T08:42:58.307Z,22.97
2022-08-03T08:44:01.325Z,23.58
2022-08-03T08:45:06.425Z,23.38
2022-08-03T08:46:23.569Z,23.34
2022-08-03T08:47:29.301Z,23.32
2022-08-03T08:48:52.848Z,22.97
2022-08-03T08:50:09.239Z,23.80
2022-08-03T08:51:13.848Z,24.16
2022-08-03T08:52:25.441Z,23.77
2022-08-03T08:53:33.304Z,23.78
2022-08-03T08:54:36.979Z,23.29
2022-08-03T08:55:58.852Z,23.80
2022-08-03T08:57:06.663Z,24.03
2022-08-03T08:58:21.459Z,23.67
2022-08-03T08:59:24.214Z,22.93
2022-08-03T09:00:26.074Z,23.82
2022-08-03T09:01:28.089Z,23.81
2022-08-03T09:02:31.190Z,23.84
2022-08-03T09:03:36.695Z,24.10
2022-08-03T09:04:39.418Z,23.32
2022-08-03T09:05:55.768Z,23.30
2022-08-03T09:07:18.729Z,22.83
2022-08-03T09:08:20.287Z,23.52
2022-08-03T09:10:04.635Z,22.68
2022-08-03T09:10:44.397Z,22.74
2022-08-03T09:12:00.356Z,22.91
2022-08-03T09:13:08.533Z,22.49
2022-08-03T09:14:11.308Z,22.85
2022-08-03T09:15:33.747Z,22.82
2022-08-03T09:16:35.454Z,22.71
2022-08-03T09:17:41.238Z,22.91
2022-08-03T09:18:45.281Z,22.95
2022-08-03T09:20:08.595Z,23.18
2022-08-03T09:21:31.769Z,23.44
2022-08-03T09:22:34.718Z,23.35
2022-08-03T09:24:01.554Z,24.04
2022-08-03T09:25:24.761Z,23.52
2022-08-03T09:26:29.507Z,23.58
2022-08-03T09:27:43.840Z,23.79
2022-08-03T09:29:00.830Z,23.43
2022-08-03T09:30:33.520Z,23.76
2022-08-03T09:31:46.487Z,23.71
2022-08-03T09:32:48.340Z,23.06
2022-08-03T09:33:50.310Z,23.72
2022-08-03T09:34:56.563Z,24.01
2022-08-03T09:36:00.016Z,24.70
2022-08-03T09:37:01.872Z,23.63
2022-08-03T09:38:17.859Z,23.61
2022-08-03T09:39:41.078Z,23.80
2022-08-03T09:40:45.180Z,23.53
2022-08-03T09:41:49.131Z,23.15
2022-08-03T09:42:57.183Z,23.25
2022-08-03T09:44:01.534Z,24.04
2022-08-03T09:45:03.303Z,24.78
2022-08-03T09:46:05.573Z,25.13
2022-08-03T09:47:11.072Z,25.36
2022-08-03T09:48:24.273Z,25.52
2022-08-03T09:49:26.084Z,25.91
2022-08-03T09:50:27.979Z,25.62
2022-08-03T09:51:32.795Z,25.05
2022-08-03T09:52:49.737Z,25.68
2022-08-03T09:53:59.121Z,25.83
2022-08-03T09:55:07.731Z,26.59
2022-08-03T09:56:58.817Z,26.42
2022-08-03T09:58:11.644Z,26.41
2022-08-03T09:59:24.075Z,26.01
2022-08-03T10:00:27.800Z,25.77
2022-08-03T10:01:34.726Z,25.54
2022-08-03T10:02:37.786Z,25.48
2022-08-03T10:04:03.194Z,25.28
2022-08-03T10:05:02.206Z,25.88
2022-08-03T10:06:19.371Z,26.35
2022-08-03T10:07:22.918Z,26.61
2022-08-03T10:08:25.144Z,26.40
2022-08-03T10:09:27.471Z,25.83
2022-08-03T10:10:42.754Z,25.53
2022-08-03T10:11:47.055Z,25.60
2022-08-03T10:12:49.424Z,25.55
2022-08-03T10:13:52.532Z,25.46
2022-08-03T10:15:04.205Z,25.20
2022-08-03T10:16:21.915Z,25.24
2022-08-03T10:17:29.674Z,25.00
2022-08-03T10:18:31.446Z,25.35
2022-08-03T10:19:33.826Z,26.09
2022-08-03T10:20:41.433Z,26.13
2022-08-03T10:21:51.214Z,26.07
2022-08-03T10:22:54.657Z,25.83
2022-08-03T10:23:59.886Z,25.43
2022-08-03T10:25:10.086Z,25.46
2022-08-03T10:26:19.324Z,25.35
2022-08-03T10:27:23.867Z,25.35
2022-08-03T10:28:34.491Z,25.52
2022-08-03T10:29:47.482Z,25.52
2022-08-03T10:30:51.547Z,25.27
2022-08-03T10:31:58.399Z,24.82
2022-08-03T10:33:50.232Z,24.78
2022-08-03T10:34:40.355Z,25.59
2022-08-03T10:35:48.746Z,25.89
2022-08-03T10:36:55.716Z,25.92
2022-08-03T10:38:06.802Z,26.03
2022-08-03T10:39:16.411Z,26.05
2022-08-03T10:40:47.646Z,26.10
2022-08-03T10:41:51.398Z,26.25
2022-08-03T10:43:02.040Z,26.27
2022-08-03T10:44:08.180Z,26.73
2022-08-03T10:45:19.848Z,27.05
2022-08-03T10:46:21.716Z,27.33
2022-08-03T10:47:23.758Z,27.23
2022-08-03T10:48:26.545Z,27.46
2022-08-03T10:49:33.929Z,27.41
2022-08-03T10:50:37.113Z,27.52
2022-08-03T10:51:39.311Z,27.04
2022-08-03T10:53:03.877Z,26.77
2022-08-03T10:54:05.859Z,27.04
2022-08-03T10:56:04.187Z,27.16
2022-08-03T10:57:26.126Z,27.36
2022-08-03T10:58:38.245Z,27.02
2022-08-03T10:59:57.608Z,27.05
2022-08-03T11:00:59.463Z,26.68
2022-08-03T11:02:01.501Z,26.65
2022-08-03T11:03:08.989Z,26.55
2022-08-03T11:04:18.821Z,26.68
2022-08-03T11:05:28.672Z,26.58
2022-08-03T11:06:31.677Z,26.65
2022-08-03T11:07:39.450Z,26.68
2022-08-03T11:08:41.108Z,26.51
2022-08-03T11:09:44.555Z,26.37
2022-08-03T11:10:48.005Z,26.25
2022-08-03T11:11:52.444Z,26.19
2022-08-03T11:13:07.170Z,26.44
2022-08-03T11:14:14.851Z,26.09
2022-08-03T11:15:33.640Z,25.55
2022-08-03T11:16:36.498Z,25.75
2022-08-03T11:17:46.660Z,25.47
2022-08-03T11:19:03.380Z,26.08
2022-08-03T11:20:06.235Z,26.49
2022-08-03T11:21:08.100Z,26.39
2022-08-03T11:22:10.090Z,26.13
2022-08-03T11:23:15.764Z,26.64
2022-08-03T11:24:43.655Z,26.16
2022-08-03T11:26:11.100Z,25.52
2022-08-03T11:27:19.186Z,24.36
2022-08-03T11:28:30.685Z,24.68
2022-08-03T11:29:32.620Z,24.65
2022-08-03T11:30:34.367Z,24.30
2022-08-03T11:31:51.914Z,24.51
2022-08-03T11:32:57.599Z,24.70
2022-08-03T11:34:06.359Z,24.63
2022-08-03T11:35:27.514Z,24.92
2022-08-03T11:37:07.791Z,24.24
2022-08-03T11:38:13.724Z,22.75
2022-08-03T11:39:17.247Z,23.03
2022-08-03T11:40:40.777Z,24.28
2022-08-03T11:41:45.412Z,24.25
2022-08-03T11:42:48.105Z,24.34
2022-08-03T11:43:52.943Z,24.26
2022-08-03T11:45:00.516Z,23.81
2022-08-03T11:46:04.592Z,23.61
2022-08-03T11:47:06.514Z,23.08
2022-08-03T11:48:16.867Z,22.39
2022-08-03T11:49:23.604Z,21.92
2022-08-03T11:50:25.729Z,22.22
2022-08-03T11:51:33.101Z,22.64
2022-08-03T11:52:39.871Z,22.85
2022-08-03T11:53:43.990Z,23.17
2022-08-03T11:54:45.724Z,22.60
2022-08-03T11:55:53.117Z,22.59
2022-08-03T11:56:54.763Z,22.65
2022-08-03T11:59:10.816Z,22.75
2022-08-03T11:59:33.159Z,23.19
2022-08-03T12:00:38.069Z,23.25
2022-08-03T12:01:40.403Z,22.87
2022-08-03T12:02:54.526Z,22.58
2022-08-03T12:04:04.667Z,22.74
2022-08-03T12:05:09.730Z,23.51
2022-08-03T12:06:15.507Z,23.80
2022-08-03T12:07:25.012Z,23.62
2022-08-03T12:08:43.723Z,23.68
2022-08-03T12:10:08.466Z,23.67
2022-08-03T12:11:13.382Z,23.71
2022-08-03T12:12:16.669Z,23.80
2022-08-03T12:14:35.720Z,23.81
2022-08-03T12:14:51.734Z,23.71
2022-08-03T12:15:59.325Z,23.94
2022-08-03T12:17:01.545Z,24.20
2022-08-03T12:18:12.456Z,24.09
2022-08-03T12:19:17.095Z,24.01
2022-08-03T12:20:31.270Z,23.80
2022-08-03T12:21:57.308Z,23.57
2022-08-03T12:23:05.265Z,23.65
2022-08-03T12:24:07.172Z,23.53
2022-08-03T12:25:09.842Z,23.08
2022-08-03T12:26:12.034Z,22.89
2022-08-03T12:27:26.126Z,23.12
2022-08-03T12:28:36.407Z,22.81
2022-08-03T12:29:39.666Z,22.06
2022-08-03T12:30:41.831Z,21.99
2022-08-03T12:31:45.982Z,21.85
2022-08-03T12:32:47.818Z,21.01
2022-08-03T12:34:04.374Z,20.82
2022-08-03T12:35:08.271Z,20.85
2022-08-03T12:36:11.038Z,19.72
2022-08-03T12:37:28.642Z,19.27
2022-08-03T12:38:36.291Z,19.44
2022-08-03T12:40:02.365Z,19.28
2022-08-03T12:41:16.689Z,19.91
2022-08-03T12:42:19.036Z,20.71
2022-08-03T12:43:22.877Z,20.65
2022-08-03T12:44:35.544Z,20.17
2022-08-03T12:45:40.428Z,20.18
2022-08-03T12:46:47.399Z,20.30
2022-08-03T12:47:59.891Z,20.27
2022-08-03T12:49:20.365Z,20.36
2022-08-03T12:50:29.526Z,19.82
2022-08-03T12:51:37.077Z,20.08
2022-08-03T12:52:45.572Z,19.81
2022-08-03T12:53:56.811Z,20.09
2022-08-03T12:55:01.546Z,19.90
2022-08-03T12:56:08.991Z,20.09
2022-08-03T12:57:15.979Z,20.42
2022-08-03T12:58:34.238Z,20.62
2022-08-03T12:59:52.696Z,21.36
2022-08-03T13:01:10.102Z,21.56
2022-08-03T13:02:24.074Z,21.16
2022-08-03T13:03:39.161Z,21.57
2022-08-03T13:04:45.262Z,21.84
2022-08-03T13:05:46.962Z,22.06
2022-08-03T13:07:03.093Z,21.73
2022-08-03T13:08:05.137Z,21.89
2022-08-03T13:09:11.043Z,21.85
2022-08-03T13:10:27.768Z,21.96
2022-08-03T13:11:55.658Z,21.76
2022-08-03T13:12:51.765Z,21.79
2022-08-03T13:13:54.776Z,21.77
2022-08-03T13:14:59.194Z,21.59
2022-08-03T13:16:00.946Z,21.61
2022-08-03T13:17:04.975Z,21.48
2022-08-03T13:18:06.686Z,21.21
2022-08-03T13:19:15.521Z,20.65
2022-08-03T13:20:17.936Z,21.02
2022-08-03T13:21:21.395Z,20.73
2022-08-03T13:22:26.864Z,20.87
2022-08-03T13:23:28.628Z,21.06
2022-08-03T13:24:31.717Z,21.28
2022-08-03T13:25:33.658Z,20.87
2022-08-03T13:26:35.462Z,21.28
2022-08-03T13:28:04.229Z,20.98
2022-08-03T13:28:59.250Z,21.25
2022-08-03T13:30:01.253Z,21.51
2022-08-03T13:31:02.994Z,21.48
2022-08-03T13:32:07.640Z,21.38
2022-08-03T13:33:09.531Z,21.59
2022-08-03T13:34:11.371Z,21.17
2022-08-03T13:35:16.528Z,21.46
2022-08-03T13:36:18.344Z,20.94
2022-08-03T13:37:20.265Z,20.58
2022-08-03T13:38:22.307Z,20.93
2022-08-03T13:39:32.536Z,20.93
2022-08-03T13:40:42.256Z,20.96
2022-08-03T13:41:44.106Z,20.82
2022-08-03T13:42:45.767Z,21.05
2022-08-03T13:43:47.584Z,20.79
2022-08-03T13:44:51.120Z,21.00
2022-08-03T13:45:57.611Z,21.38
2022-08-03T13:47:00.923Z,21.41
2022-08-03T13:48:02.692Z,21.30
2022-08-03T13:49:06.900Z,21.30
2022-08-03T13:50:08.591Z,20.76
2022-08-03T13:51:21.652Z,20.93
2022-08-03T13:52:24.636Z,21.13
2022-08-03T13:53:26.323Z,21.05
2022-08-03T13:54:30.966Z,21.40
2022-08-03T13:55:33.568Z,21.42
2022-08-03T13:56:35.434Z,21.69
2022-08-03T13:58:05.172Z,21.83
2022-08-03T13:59:01.788Z,21.72
2022-08-03T14:00:06.181Z,21.99
2022-08-03T14:01:08.110Z,21.58
2022-08-03T14:02:09.932Z,21.63
2022-08-03T14:03:14.722Z,21.63
2022-08-03T14:04:22.148Z,21.65
2022-08-03T14:05:24.299Z,21.55
2022-08-03T14:06:26.187Z,21.23
2022-08-03T14:07:27.813Z,21.38
2022-08-03T14:08:29.826Z,21.28
2022-08-03T14:09:31.557Z,21.52
2022-08-03T14:10:35.316Z,21.35
2022-08-03T14:12:07.633Z,21.26
2022-08-03T14:13:00.376Z,21.52
2022-08-03T14:14:02.437Z,21.38
2022-08-03T14:15:04.700Z,21.54
2022-08-03T14:16:06.921Z,21.86
2022-08-03T14:17:11.728Z,21.66
2022-08-03T14:18:15.585Z,21.82
2022-08-03T14:19:17.765Z,21.64
2022-08-03T14:20:37.972Z,21.59
2022-08-03T14:21:41.415Z,22.01
2022-08-03T14:22:43.304Z,22.32